KSBP/SBP METAR and TAF weather

Enter ICAO airport designator
Station Type Date Time Source
KSBP METAR 2020/11/25 21:56 UTC NOAA

KSBP 252156Z 31016KT 10SM CLR 18/08 A3008 RMK AO2 SLP185 T01780083


Station Type Date Time Source
KSBP Decoded METAR 2020/11/25 21:56 UTC NOAA

SAN LUIS OBISPO MC CHESNEY, CA, United States (KSBP) 35-14N 120-38W 59M
Nov 25, 2020 - 04:56 PM EST / 2020.11.25 2156 UTC
Wind: from the NW (310 degrees) at 18 MPH (16 KT):0
Visibility: 10 mile(s):0
Sky conditions: clear
Temperature: 64.0 F (17.8 C)
Dew Point: 46.9 F (8.3 C)
Relative Humidity: 53%
Pressure (altimeter): 30.08 in. Hg (1018 hPa)
ob: KSBP 252156Z 31016KT 10SM CLR 18/08 A3008 RMK AO2 SLP185 T01780083
cycle: 22

Station Type Date Time Source
KSBP TAF 2020/11/25 21:03 UTC NOAA

TAF
AMD KSBP 252101Z 2521/2618 29012KT P6SM SKC
FM252300 32017G25KT P6SM SKC
FM260200 33008KT P6SM SKC
FM261100 33015KT P6SM SKC
FM261500 33007KT P6SM SKC

Example: see airport list